Home > Products > Valid Products > MTR

000
SAUS43 KBIS 012154
MTRN60
METAR KN60 012152Z AUTO 14003KT 25/18 A3006 RMK AO1 SLP174 T02500178





000
SAUS43 KBIS 012053
MTRN60
METAR KN60 012052Z AUTO 34005KT 27/17 A3010 RMK AO1 SLP185 T02670172
53001





000
SAUS43 KBIS 011954
MTRN60
METAR KN60 011952Z AUTO VRB04KT 28/16 A3009 RMK AO1 SLP181 T02830161





000
SAUS43 KBIS 011853
MTRN60
METAR KN60 011852Z AUTO VRB06KT 28/14 A3009 RMK AO1 SLP183 T02780144





000
SAUS43 KBIS 011754
MTRN60
METAR KN60 011752Z AUTO 12006KT 27/17 A3009 RMK AO1 SLP183 T02720167
10272 20150 51005





000
SAUS43 KBIS 011653
MTRN60
METAR KN60 011652Z AUTO 10006KT 27/17 A3009 RMK AO1 SLP182 T02670167





000
SAUS43 KBIS 011554
MTRN60
METAR KN60 011552Z AUTO 09009KT 25/16 A3008 RMK AO1 SLP178 T02500161





000
SAUS43 KBIS 011454
MTRN60
METAR KN60 011452Z AUTO 10007KT 23/17 A3008 RMK AO1 SLP177 T02280167
51008





000
SAUS43 KBIS 011354
MTRN60
METAR KN60 011352Z AUTO 12004KT 20/16 A3007 RMK AO1 SLP176 T02000161





000
SAUS43 KBIS 011253
MTRN60
METAR KN60 011252Z AUTO 08004KT 18/15 A3007 RMK AO1 SLP176 T01780150





000
SAUS43 KBIS 011154
MTRN60
METAR KN60 011152Z AUTO 08005KT 16/14 A3005 RMK AO1 SLP169 T01610139
10167 20133 58005





000
SAUS43 KBIS 011055
MTRN60
METAR KN60 011052Z AUTO 06003KT 14/12 A3006 RMK AO1 SLP174 T01390122





000
SAUS43 KBIS 010954
MTRN60
METAR KN60 010952Z AUTO 00000KT 14/12 A3007 RMK AO1 SLP176 T01390117





000
SAUS43 KBIS 010853
MTRN60
METAR KN60 010852Z AUTO 08003KT 15/13 A3007 RMK AO1 SLP175 T01500128
53001





000
SAUS43 KBIS 010753
MTRN60
METAR KN60 010752Z AUTO 00000KT 15/13 A3006 RMK AO1 SLP173 T01500128





000
SAUS43 KBIS 010653
MTRN60
METAR KN60 010652Z AUTO 00000KT 16/13 A3006 RMK AO1 SLP173 T01560133





000
SAUS43 KBIS 010554
MTRN60
METAR KN60 010552Z AUTO 00000KT 17/13 A3006 RMK AO1 SLP173 T01670133
10272 20161 402780128 51008





000
SAUS43 KBIS 010453
MTRN60
METAR KN60 010452Z AUTO 06003KT 18/14 A3006 RMK AO1 SLP171 T01780144





000
SAUS43 KBIS 010354
MTRN60
METAR KN60 010352Z AUTO 00000KT 19/14 A3005 RMK AO1 SLP167 T01890139





000
SAUS43 KBIS 010254
MTRN60
METAR KN60 010252Z AUTO 08005KT 21/15 A3004 RMK AO1 SLP163 T02060150
55001





000
SAUS43 KBIS 010154
MTRN60
METAR KN60 010152Z AUTO 08004KT 23/16 A3002 RMK AO1 SLP158 T02280156





000
SAUS43 KBIS 010053
MTRN60
METAR KN60 010052Z AUTO 10006KT 24/14 A3003 RMK AO1 SLP162 T02440144





000
SAUS43 KBIS 312354
MTRN60
METAR KN60 312352Z AUTO 10004KT 27/14 A3004 RMK AO1 SLP166 T02720139
10278 20256 58013





000
SAUS43 KBIS 312253
MTRN60
METAR KN60 312252Z AUTO 00000KT 27/13 A3006 RMK AO1 SLP172 T02720128





000
SAUS43 KBIS 312154
MTRN60
METAR KN60 312152Z AUTO 00000KT 27/14 A3007 RMK AO1 SLP177 T02670139





000
SAUS43 KBIS 312053
MTRN60
METAR KN60 312052Z AUTO 00000KT 27/14 A3008 RMK AO1 SLP180 T02670139
58004





000
SAUS43 KBIS 311954
MTRN60
METAR KN60 311952Z AUTO VRB03KT 27/15 A3008 RMK AO1 SLP181 T02720150





000
SAUS43 KBIS 311853
MTRN60
METAR KN60 311852Z AUTO 18004KT 26/14 A3009 RMK AO1 SLP182 T02610144





000
SAUS43 KBIS 311754
MTRN60
METAR KN60 311752Z AUTO VRB05KT 26/14 A3009 RMK AO1 SLP184 T02560144
10256 20128 56001





000
SAUS43 KBIS 311653
MTRN60
METAR KN60 311652Z AUTO 13007KT 25/14 A3009 RMK AO1 SLP183 T02500139





000
SAUS43 KBIS 311554
MTRN60
METAR KN60 311552Z AUTO 14005KT 24/14 A3009 RMK AO1 SLP183 T02390139





000
SAUS43 KBIS 311453
MTRN60
METAR KN60 311452Z AUTO VRB04KT 22/17 A3009 RMK AO1 SLP185 T02220167
58002





000
SAUS43 KBIS 311354
MTRN60
METAR KN60 311352Z AUTO 00000KT 20/16 A3009 RMK AO1 SLP183 T02000161





000
SAUS43 KBIS 311253
MTRN60
METAR KN60 311252Z AUTO 36004KT 16/15 A3011 RMK AO1 SLP188 T01610150





000
SAUS43 KBIS 311154
MTRN60
METAR KN60 311152Z AUTO 00000KT 13/13 A3010 RMK AO1 SLP187 T01330128
10150 20128 55005





000
SAUS43 KBIS 311053
MTRN60
METAR KN60 311052Z AUTO 35005KT 14/13 A3009 RMK AO1 SLP185 T01390128





000
SAUS43 KBIS 310954
MTRN60
METAR KN60 310952Z AUTO 33004KT 14/13 A3011 RMK AO1 SLP191 T01390128





000
SAUS43 KBIS 310853
MTRN60
METAR KN60 310852Z AUTO 33005KT 14/13 A3011 RMK AO1 SLP193 T01390128
58001





000
SAUS43 KBIS 310754
MTRN60
METAR KN60 310752Z AUTO 32003KT 14/14 A3012 RMK AO1 SLP195 T01440139





000
SAUS43 KBIS 310653
MTRN60
METAR KN60 310652Z AUTO 36005KT 15/14 A3011 RMK AO1 SLP192 T01500139





000
SAUS43 KBIS 310554
MTRN60
METAR KN60 310552Z AUTO 33004KT 15/14 A3012 RMK AO1 SLP194 T01500139
10267 20150 402670122 52001





000
SAUS43 KBIS 310453
MTRN60
METAR KN60 310452Z AUTO 36004KT 17/15 A3011 RMK AO1 SLP192 T01670150





000
SAUS43 KBIS 310354
MTRN60
METAR KN60 310352Z AUTO 36005KT 17/15 A3012 RMK AO1 SLP194 T01670150





000
SAUS43 KBIS 310354
MTRN60
METAR KN60 310352Z AUTO 36005KT 17/15 A3012 RMK AO1 SLP194 T01670150





000
SAUS43 KBIS 310253
MTRN60
METAR KN60 310252Z AUTO 01003KT 18/16 A3011 RMK AO1 SLP193 T01830156
53002





000
SAUS43 KBIS 310154
MTRN60
METAR KN60 310152Z AUTO 00000KT 22/17 A3011 RMK AO1 SLP190 T02220167





000
SAUS43 KBIS 310053
MTRN60
METAR KN60 310052Z AUTO 02003KT 26/15 A3011 RMK AO1 SLP190 T02560150





000
SAUS43 KBIS 302354
MTRN60
METAR KN60 302352Z AUTO 34004KT 27/14 A3011 RMK AO1 SLP191 T02670139
10267 20233 56012





000
SAUS43 KBIS 302253
MTRN60
METAR KN60 302252Z AUTO 03004KT 26/14 A3012 RMK AO1 SLP194 T02560144





000
SAUS43 KBIS 302154
MTRN60
METAR KN60 302152Z AUTO 00000KT 26/16 A3013 RMK AO1 SLP197 T02610161





000
SAUS43 KBIS 302053
MTRN60
METAR KN60 302052Z AUTO 35004KT 25/14 A3014 RMK AO1 SLP203 T02500144
56004





000
SAUS43 KBIS 301954
MTRN60
METAR KN60 301952Z AUTO 14003KT 26/16 A3015 RMK AO1 SLP204 T02560156





000
SAUS43 KBIS 301853
MTRN60
METAR KN60 301852Z AUTO 00000KT 24/15 A3015 RMK AO1 SLP206 T02390150





000
SAUS43 KBIS 301754
MTRN60
METAR KN60 301752Z AUTO 22004KT 24/16 A3016 RMK AO1 SLP208 T02440156
10250 20122 58005





000
SAUS43 KBIS 301653
MTRN60
METAR KN60 301652Z AUTO 20003KT 23/15 A3017 RMK AO1 SLP212 T02330150





000
SAUS43 KBIS 301554
MTRN60
METAR KN60 301552Z AUTO 17003KT 22/14 A3017 RMK AO1 SLP212 T02220144





000
SAUS43 KBIS 301454
MTRN60
METAR KN60 301452Z AUTO 00000KT 21/16 A3018 RMK AO1 SLP213 T02110161
50003





000
SAUS43 KBIS 301354
MTRN60
METAR KN60 301352Z AUTO 00000KT 19/17 A3018 RMK AO1 SLP213 T01890167





000
SAUS43 KBIS 301253
MTRN60
METAR KN60 301252Z AUTO 00000KT 15/14 A3017 RMK AO1 SLP213 T01500144





000
SAUS43 KBIS 301154
MTRN60
METAR KN60 301152Z AUTO 01003KT 12/12 A3017 RMK AO1 SLP213 T01220122
10156 20122 50000





000
SAUS43 KBIS 301054
MTRN60
METAR KN60 301052Z AUTO 02003KT 12/12 A3017 RMK AO1 SLP214 T01220117





000
SAUS43 KBIS 300954
MTRN60
METAR KN60 300952Z AUTO 03003KT 13/13 A3017 RMK AO1 SLP213 T01330128





000
SAUS43 KBIS 300853
MTRN60
METAR KN60 300852Z AUTO 01003KT 13/13 A3017 RMK AO1 SLP210 T01330128
50000





000
SAUS43 KBIS 300754
MTRN60
METAR KN60 300752Z AUTO 00000KT 14/13 A3017 RMK AO1 SLP211 T01390133





000
SAUS43 KBIS 300653
MTRN60
METAR KN60 300652Z AUTO 00000KT 14/13 A3017 RMK AO1 SLP212 T01440133





000
SAUS43 KBIS 300554
MTRN60
METAR KN60 300552Z AUTO 02003KT 16/15 A3017 RMK AO1 SLP210 T01560150
10239 20156 402610117 51005





000
SAUS43 KBIS 300454
MTRN60
METAR KN60 300452Z AUTO 00000KT 16/14 A3016 RMK AO1 SLP209 T01560144





000
SAUS43 KBIS 300354
MTRN60
METAR KN60 300352Z AUTO 07003KT 18/16 A3016 RMK AO1 SLP206 T01830161





000
SAUS43 KBIS 300253
MTRN60
METAR KN60 300252Z AUTO 07004KT 19/17 A3015 RMK AO1 SLP205 T01940167
53001





000
SAUS43 KBIS 300154
MTRN60
METAR KN60 300152Z AUTO 07004KT 22/17 A3014 RMK AO1 SLP200 T02170172





000
SAUS43 KBIS 300053
MTRN60
METAR KN60 300052Z AUTO 10003KT 23/16 A3013 RMK AO1 SLP200 T02330156





000
SAUS43 KBIS 292354
MTRN60
METAR KN60 292352Z AUTO 09005KT 23/16 A3015 RMK AO1 SLP204 T02330156
10261 20189 58004





000
SAUS43 KBIS 292253
MTRN60
METAR KN60 292252Z AUTO 07005KT 22/15 A3015 RMK AO1 SLP208 T02170150





    US Dept of Commerce
    National Oceanic and Atmospheric Administration
    National Weather Service
    1325 East West Highway
    Silver Spring, MD 20910
    Page Author: NWS Internet Services Team
Disclaimer
Information Quality
Credits
Glossary
Privacy Policy
Freedom of Information Act (FOIA)
About Us
Career Opportunities